Weslaco Annex Farm's Hourly Summary for Friday, July 6, 2018
Hour Temp
(f)
RH
(%)
Solar Rad.
(MJ/m2)
Rainfall
(in)
Wind
(mph)
7/6/2018 12:00 AM 77 92 0 0 1.25
7/6/2018 1:00 AM 77 93 0 0 0.99
7/6/2018 2:00 AM 76 95 0 0 2.18
7/6/2018 3:00 AM 76 96 0 0 1.86
7/6/2018 4:00 AM 75 96 0 0 2.22
7/6/2018 5:00 AM 75 96 0 0 1.84
7/6/2018 6:00 AM 75 97 0 0 1.83
7/6/2018 7:00 AM 76 96 0.17 0 2.95
7/6/2018 8:00 AM 79 92 0.54 0 3.32
7/6/2018 9:00 AM 83 82 1.06 0 3.07
7/6/2018 10:00 AM 86 68 1.54 0 3.92
7/6/2018 11:00 AM 87 62 1.48 0 5.42
7/6/2018 12:00 PM 89 58 1.86 0 7.45
7/6/2018 1:00 PM 90 56 1.02 0 7.57
7/6/2018 2:00 PM 87 62 0.5 0 6.39
7/6/2018 3:00 PM 79 79 0.34 0.02 9.11
7/6/2018 4:00 PM 79 80 0.51 0 3.34
7/6/2018 5:00 PM 80 79 0.64 0 4.48
7/6/2018 6:00 PM 82 78 0.62 0 3.97
7/6/2018 7:00 PM 81 77 0.23 0 4.66
7/6/2018 8:00 PM 80 79 0.01 0 2.65
7/6/2018 9:00 PM 79 81 0 0 1.89
7/6/2018 10:00 PM 78 83 0 0 1.31
7/6/2018 11:00 PM 77 88 0 0 0.96
Data Summary 80 81 10.52 0.02 3.53